Time;durP1;ratioP1;P1;durP2;ratioP2;P2;SDS_P1;SDS_P2;PMS_P1;PMS_P2;Temp;Humidity;BMP_temperature;BMP_pressure;BME280_temperature;BME280_humidity;BME280_pressure;Samples;Min_cycle;Max_cycle;Signal;HPM_P1;HPM_P2
2022/11/13 00:01:21;;;;;;;23.03;16.90;;;;;;;14.91;72.25;100488.84;5042488;28;20447;-67
2022/11/13 00:03:48;;;;;;;25.60;19.83;;;;;;;14.86;72.00;100480.47;5041294;28;20055;-66
2022/11/13 00:06:17;;;;;;;25.47;18.93;;;;;;;14.93;72.04;100492.16;5034680;28;20413;-66
2022/11/13 00:08:44;;;;;;;15.17;13.63;;;;;;;14.90;72.21;100494.75;5038636;28;20530;-66
2022/11/13 00:11:14;;;;;;;26.50;17.87;;;;;;;14.89;72.25;100488.31;5032399;28;21332;-67
2022/11/13 00:13:44;;;;;;;17.45;14.02;;;;;;;14.87;72.16;100489.75;5035078;28;20527;-66
2022/11/13 00:16:14;;;;;;;27.30;20.10;;;;;;;14.67;72.52;100457.28;5045536;28;20427;-67
2022/11/13 00:18:41;;;;;;;35.80;21.05;;;;;;;14.82;72.54;100490.69;5035612;28;20042;-67
2022/11/13 00:21:15;;;;;;;25.20;19.27;;;;;;;14.92;72.28;100495.28;5035018;28;20408;-67
2022/11/13 00:23:42;;;;;;;18.00;14.17;;;;;;;14.93;72.31;100489.34;5046010;28;20041;-68
2022/11/13 00:26:18;;;;;;;26.33;19.07;;;;;;;14.96;72.02;100496.31;5038206;28;20052;-68
2022/11/13 00:28:45;;;;;;;20.63;17.37;;;;;;;14.90;72.19;100509.63;5041221;28;20049;-68
2022/11/13 00:31:14;;;;;;;22.63;18.50;;;;;;;14.92;72.06;100489.66;5043906;28;20407;-66
2022/11/13 00:33:41;;;;;;;19.70;16.10;;;;;;;14.83;72.33;100494.34;5040748;28;20056;-68
2022/11/13 00:36:28;;;;;;;30.67;22.90;;;;;;;14.84;72.23;100491.22;5036965;28;20156;-68
2022/11/13 00:38:55;;;;;;;26.97;19.97;;;;;;;14.76;72.23;100474.22;5039988;28;20053;-66
2022/11/13 00:41:23;;;;;;;27.90;19.53;;;;;;;14.88;72.25;100488.63;5038592;28;20049;-66
2022/11/13 00:43:50;;;;;;;25.00;19.90;;;;;;;14.80;72.15;100484.56;5045520;28;20052;-69
2022/11/13 00:46:17;;;;;;;23.27;17.27;;;;;;;14.82;72.47;100495.47;5039855;28;20056;-66
2022/11/13 00:48:44;;;;;;;21.17;18.77;;;;;;;14.68;72.70;100472.97;5033425;28;20499;-67
2022/11/13 00:51:11;;;;;;;18.53;16.03;;;;;;;14.64;73.00;100475.56;5032558;28;20484;-68
2022/11/13 00:53:37;;;;;;;16.23;14.63;;;;;;;14.65;73.00;100484.84;5031856;28;20068;-68
2022/11/13 00:56:04;;;;;;;26.07;18.60;;;;;;;14.65;73.21;100484.84;5035235;28;20045;-68
2022/11/13 00:58:31;;;;;;;20.97;16.37;;;;;;;14.62;73.17;100486.28;5043356;28;20385;-67
2022/11/13 01:01:08;;;;;;;17.43;15.53;;;;;;;14.46;73.54;100466.03;5040094;28;20143;-68
2022/11/13 01:03:35;;;;;;;28.60;21.03;;;;;;;14.50;73.56;100476.66;5032587;28;20136;-67
2022/11/13 01:06:20;;;;;;;34.00;20.40;;;;;;;14.48;73.80;100481.75;5039649;28;20049;-67
2022/11/13 01:08:48;;;;;;;23.17;19.83;;;;;;;14.53;73.79;100478.88;5033168;28;20049;-67
2022/11/13 01:11:20;;;;;;;20.43;17.67;;;;;;;14.52;73.63;100474.41;5033603;28;20061;-67
2022/11/13 01:13:49;;;;;;;29.67;21.83;;;;;;;14.49;73.80;100460.94;5037284;28;20049;-67
2022/11/13 01:16:19;;;;;;;24.23;18.65;;;;;;;14.57;73.58;100475.16;5030078;28;20069;-67
2022/11/13 01:18:46;;;;;;;18.27;16.33;;;;;;;14.57;73.62;100485.56;5038345;28;20041;-68
2022/11/13 01:21:21;;;;;;;29.47;19.50;;;;;;;14.58;73.64;100478.78;5042854;28;20060;-68
2022/11/13 01:23:48;;;;;;;27.43;20.80;;;;;;;14.55;73.50;100462.53;5047821;28;20518;-67
2022/11/13 01:26:22;;;;;;;24.03;19.93;;;;;;;14.65;73.50;100480.03;5048912;28;20393;-67
2022/11/13 01:28:49;;;;;;;33.43;23.67;;;;;;;14.67;73.37;100479.75;5054210;28;20048;-66
2022/11/13 01:31:20;;;;;;;22.30;18.13;;;;;;;14.68;73.40;100473.81;5035005;28;21151;-67
2022/11/13 01:33:48;;;;;;;26.67;19.80;;;;;;;14.72;73.10;100476.00;5046955;28;20053;-67
2022/11/13 01:36:20;;;;;;;16.77;14.80;;;;;;;14.63;73.18;100465.50;5043678;28;20514;-66
2022/11/13 01:38:48;;;;;;;25.73;20.30;;;;;;;14.64;73.17;100469.13;5054080;28;20051;-66
2022/11/13 01:41:24;;;;;;;24.37;18.33;;;;;;;14.59;72.84;100467.22;5052244;28;20522;-66
2022/11/13 01:43:52;;;;;;;21.90;17.23;;;;;;;14.67;73.09;100479.75;5046326;28;20044;-66
2022/11/13 01:46:31;;;;;;;29.17;19.40;;;;;;;14.70;72.79;100481.94;5043190;28;20049;-66
2022/11/13 01:49:04;;;;;;;30.57;20.47;;;;;;;14.71;72.59;100477.97;5042906;28;20037;-66
2022/11/13 01:51:52;;;;;;;27.03;19.97;;;;;;;14.58;72.73;100490.84;5042733;28;20407;-65
2022/11/13 01:54:24;;;;;;;18.00;16.20;;;;;;;14.53;73.17;100490.97;5047366;28;20037;-66
2022/11/13 01:56:52;;;;;;;17.90;14.40;;;;;;;14.52;73.11;100480.03;5046766;28;20045;-65
2022/11/13 01:59:23;;;;;;;18.40;15.90;;;;;;;14.44;73.40;100473.94;5043341;28;20049;-65
2022/11/13 02:01:50;;;;;;;12.70;11.40;;;;;;;14.35;73.49;100470.16;5043419;28;20060;-65
2022/11/13 02:04:18;;;;;;;18.63;15.07;;;;;;;14.31;73.94;100474.72;5044983;28;20053;-65
2022/11/13 02:06:50;;;;;;;15.23;13.60;;;;;;;14.30;73.82;100475.88;5041442;28;20492;-65
2022/11/13 02:09:21;;;;;;;23.20;19.33;;;;;;;14.29;73.94;100465.78;5044687;28;20053;-64
2022/11/13 02:11:48;;;;;;;12.97;11.90;;;;;;;14.23;74.34;100467.03;5049380;28;20625;-65
2022/11/13 02:14:17;;;;;;;23.17;16.47;;;;;;;14.20;74.52;100467.63;5047842;28;20052;-65
2022/11/13 02:16:47;;;;;;;14.83;13.53;;;;;;;14.07;74.72;100463.63;5052597;28;20052;-66
2022/11/13 02:19:47;;;;;;;26.87;18.63;;;;;;;14.03;75.00;100461.75;5045947;28;20056;-66
2022/11/13 02:22:48;;;;;;;22.38;15.23;;;;;;;13.95;75.43;100472.53;5046687;28;20053;-67
2022/11/13 02:25:16;;;;;;;18.30;16.50;;;;;;;13.95;75.50;100475.34;5046572;28;20041;-66
2022/11/13 02:27:47;;;;;;;26.37;14.40;;;;;;;13.91;75.55;100465.88;5034425;28;20050;-66
2022/11/13 02:30:20;;;;;;;23.03;17.40;;;;;;;13.95;75.58;100461.31;5049455;28;20115;-66
2022/11/13 02:32:54;;;;;;;17.27;15.50;;;;;;;13.86;75.48;100460.31;5040582;28;20051;-66
2022/11/13 02:35:26;;;;;;;15.83;14.20;;;;;;;13.91;75.58;100460.25;5042553;28;20051;-66
2022/11/13 02:37:58;;;;;;;15.63;14.03;;;;;;;13.86;75.92;100451.91;5049355;28;20041;-66
2022/11/13 02:40:25;;;;;;;16.40;14.23;;;;;;;13.93;75.96;100455.16;5043953;28;20049;-66
2022/11/13 02:42:52;;;;;;;16.87;13.60;;;;;;;13.91;75.85;100454.63;5039375;28;20045;-66
2022/11/13 02:45:19;;;;;;;19.20;15.80;;;;;;;13.80;75.86;100430.66;5040756;28;20057;-67
2022/11/13 02:47:46;;;;;;;18.57;16.13;;;;;;;13.95;75.75;100461.31;5044679;28;20056;-66
2022/11/13 02:50:13;;;;;;;22.07;18.20;;;;;;;13.94;75.83;100461.59;5033908;28;20054;-67
2022/11/13 02:52:40;;;;;;;20.17;16.30;;;;;;;13.96;75.69;100465.78;5045723;28;20054;-66
2022/11/13 02:55:07;;;;;;;21.23;16.30;;;;;;;13.97;75.54;100461.81;5041901;28;20041;-67
2022/11/13 02:57:34;;;;;;;22.33;17.97;;;;;;;13.98;75.30;100466.31;5048768;28;20721;-66
2022/11/13 03:00:03;;;;;;;24.93;19.40;;;;;;;14.04;75.25;100474.63;5036136;28;20057;-66
2022/11/13 03:02:38;;;;;;;21.77;16.60;;;;;;;13.94;75.31;100459.63;5046781;28;20041;-66
2022/11/13 03:05:05;;;;;;;20.43;15.40;;;;;;;13.94;75.31;100459.63;5046582;28;20393;-67
2022/11/13 03:07:40;;;;;;;23.50;20.83;;;;;;;13.94;75.64;100464.41;5035233;28;20053;-66
2022/11/13 03:10:09;;;;;;;17.37;13.73;;;;;;;13.90;75.53;100457.72;5036946;28;20515;-66
2022/11/13 03:12:37;;;;;;;16.80;15.00;;;;;;;13.90;75.80;100464.19;5036504;28;20496;-66
2022/11/13 03:15:04;;;;;;;15.83;13.90;;;;;;;13.89;75.74;100462.53;5052315;28;20496;-67
2022/11/13 03:17:32;;;;;;;14.03;12.43;;;;;;;13.83;75.77;100451.66;5047202;28;20052;-66
2022/11/13 03:19:59;;;;;;;19.57;15.20;;;;;;;13.93;75.75;100469.19;5066025;28;20057;-66
2022/11/13 03:22:26;;;;;;;20.43;15.13;;;;;;;13.92;75.66;100461.91;5047984;28;20052;-67
2022/11/13 03:24:53;;;;;;;19.80;15.20;;;;;;;13.86;75.54;100460.31;5052988;28;20053;-66
2022/11/13 03:27:20;;;;;;;15.90;13.83;;;;;;;13.85;75.63;100458.66;5035250;28;20057;-67
2022/11/13 03:29:47;;;;;;;17.77;15.03;;;;;;;13.89;75.51;100468.13;5052125;28;20048;-67
2022/11/13 03:32:14;;;;;;;15.60;13.97;;;;;;;13.87;75.57;100469.56;5034763;28;20048;-67
2022/11/13 03:34:41;;;;;;;19.20;15.43;;;;;;;13.87;75.54;100459.16;5042643;28;20072;-67
2022/11/13 03:37:08;;;;;;;20.77;13.70;;;;;;;13.85;75.66;100455.84;5038832;28;20061;-67
2022/11/13 03:39:34;;;;;;;21.50;14.40;;;;;;;13.81;75.58;100453.94;5039236;28;20044;-67
2022/11/13 03:42:01;;;;;;;18.97;17.00;;;;;;;13.85;75.43;100461.47;5035900;28;20060;-67
2022/11/13 03:44:28;;;;;;;21.00;14.90;;;;;;;13.68;75.54;100438.72;5037387;28;20052;-68
2022/11/13 03:46:55;;;;;;;20.13;14.60;;;;;;;13.79;75.56;100453.44;5047025;28;20053;-68
2022/11/13 03:49:21;;;;;;;15.73;12.53;;;;;;;13.69;75.98;100463.66;5070618;28;20045;-69
2022/11/13 03:51:48;;;;;;;30.30;16.97;;;;;;;13.72;76.03;100457.44;5039446;28;20132;-67
2022/11/13 03:54:15;;;;;;;17.83;14.40;;;;;;;13.73;76.11;100463.88;5046522;28;20408;-68
2022/11/13 03:56:42;;;;;;;16.40;14.70;;;;;;;13.71;76.27;100457.75;5064007;28;20055;-67
2022/11/13 03:59:08;;;;;;;20.50;14.87;;;;;;;13.72;76.17;100462.22;5058002;28;20048;-67
2022/11/13 04:01:35;;;;;;;14.10;11.90;;;;;;;13.75;76.17;100461.63;5056145;28;20046;-68
2022/11/13 04:04:02;;;;;;;12.27;11.13;;;;;;;13.49;76.18;100419.91;5051336;28;20044;-68
2022/11/13 04:06:29;;;;;;;20.10;16.40;;;;;;;13.74;76.04;100459.94;5048147;28;20515;-68
2022/11/13 04:08:56;;;;;;;20.93;13.60;;;;;;;13.78;76.25;100451.75;5038030;28;20044;-67
2022/11/13 04:11:24;;;;;;;14.73;13.27;;;;;;;13.83;76.10;100460.09;5034326;28;20045;-67
2022/11/13 04:13:50;;;;;;;14.80;13.17;;;;;;;13.85;75.86;100458.66;5041098;28;20049;-66
2022/11/13 04:16:17;;;;;;;17.27;13.70;;;;;;;13.88;75.80;100454.38;5034990;28;20045;-66
2022/11/13 04:18:44;;;;;;;14.57;13.27;;;;;;;13.82;76.00;100447.22;5047647;28;20123;-66
2022/11/13 04:21:11;;;;;;;20.13;15.23;;;;;;;13.82;75.84;100439.63;5037027;28;20064;-66
2022/11/13 04:23:37;;;;;;;19.40;15.07;;;;;;;13.88;75.66;100455.25;5049046;28;20052;-66
2022/11/13 04:26:04;;;;;;;16.27;13.57;;;;;;;13.83;75.74;100446.88;5037447;28;20053;-67
2022/11/13 04:28:31;;;;;;;14.80;13.27;;;;;;;13.88;75.72;100448.78;5039223;28;20053;-67
2022/11/13 04:30:58;;;;;;;14.10;12.30;;;;;;;13.82;75.78;100445.22;5042532;28;20050;-68
2022/11/13 04:33:25;;;;;;;14.87;13.30;;;;;;;13.81;75.75;100449.19;5037140;28;20514;-67
2022/11/13 04:35:52;;;;;;;18.40;13.70;;;;;;;13.84;75.72;100454.16;5045659;28;20049;-66
2022/11/13 04:38:18;;;;;;;20.07;12.67;;;;;;;13.83;75.88;100454.47;5033237;28;20051;-67
2022/11/13 04:40:50;;;;;;;17.37;13.87;;;;;;;13.75;75.74;100434.38;5041691;28;20056;-66
2022/11/13 04:43:17;;;;;;;16.87;15.07;;;;;;;13.73;75.91;100438.63;5039411;28;20053;-66
2022/11/13 04:45:43;;;;;;;14.47;13.00;;;;;;;13.66;75.92;100432.56;5036281;28;20446;-67
2022/11/13 04:48:10;;;;;;;13.00;10.63;;;;;;;13.66;76.10;100443.78;5038938;28;20052;-66
2022/11/13 04:50:37;;;;;;;12.93;11.73;;;;;;;13.67;76.26;100448.25;5036705;28;20061;-67
2022/11/13 04:53:03;;;;;;;18.80;12.73;;;;;;;13.66;76.32;100438.19;5036572;28;20045;-67
2022/11/13 04:55:30;;;;;;;12.87;11.43;;;;;;;13.65;76.38;100439.31;5033380;28;20050;-67
2022/11/13 04:57:57;;;;;;;15.40;12.90;;;;;;;13.55;76.44;100423.47;5037359;28;20052;-66
2022/11/13 05:00:24;;;;;;;13.00;11.30;;;;;;;13.69;76.37;100440.38;5037251;28;20060;-67
2022/11/13 05:02:51;;;;;;;21.60;14.87;;;;;;;13.76;76.08;100446.44;5058168;28;20049;-67
2022/11/13 05:05:18;;;;;;;15.20;12.73;;;;;;;13.80;75.56;100441.06;5055987;28;20049;-67
2022/11/13 05:07:44;;;;;;;18.57;12.90;;;;;;;13.72;75.84;100426.56;5050592;28;20049;-67
2022/11/13 05:10:11;;;;;;;13.93;12.03;;;;;;;13.72;75.85;100429.38;5038175;28;20506;-66
2022/11/13 05:12:38;;;;;;;13.80;12.30;;;;;;;13.66;75.98;100419.38;5038734;28;20049;-66
2022/11/13 05:15:05;;;;;;;11.37;10.27;;;;;;;13.65;76.29;100416.88;5035558;28;20049;-66
2022/11/13 05:17:32;;;;;;;10.10;9.23;;;;;;;13.72;76.27;100425.75;5038665;28;20060;-67
2022/11/13 05:19:59;;;;;;;11.97;10.03;;;;;;;13.77;76.31;100430.44;5058218;28;20056;-68
2022/11/13 05:22:26;;;;;;;11.50;10.77;;;;;;;13.72;76.26;100418.16;5035990;28;20056;-68
2022/11/13 05:24:52;;;;;;;16.33;13.53;;;;;;;13.79;76.17;100428.16;5046210;28;20056;-68
2022/11/13 05:27:19;;;;;;;19.17;16.37;;;;;;;13.70;76.02;100413.97;5034899;28;20049;-67
2022/11/13 05:29:46;;;;;;;18.97;13.63;;;;;;;13.65;75.92;100417.72;5042122;28;20071;-66
2022/11/13 05:32:13;;;;;;;19.90;11.13;;;;;;;13.64;76.02;100435.69;5033957;28;20049;-67
2022/11/13 05:34:40;;;;;;;11.50;10.50;;;;;;;13.59;76.24;100429.31;5037809;28;20055;-67
2022/11/13 05:37:06;;;;;;;11.43;10.50;;;;;;;13.54;76.39;100426.56;5041547;28;20053;-67
2022/11/13 05:39:33;;;;;;;14.93;13.33;;;;;;;13.45;76.50;100418.03;5038692;28;20046;-67
2022/11/13 05:42:00;;;;;;;18.97;14.30;;;;;;;13.49;76.50;100431.13;5056828;28;20053;-67
2022/11/13 05:44:27;;;;;;;17.07;14.83;;;;;;;13.44;76.26;100428.41;5072446;28;20049;-68
2022/11/13 05:46:54;;;;;;;17.77;13.80;;;;;;;13.34;76.35;100394.91;5053989;28;20080;-68
2022/11/13 05:49:20;;;;;;;15.53;13.83;;;;;;;13.47;76.24;100425.00;5042736;28;20052;-68
2022/11/13 05:51:47;;;;;;;14.17;11.70;;;;;;;13.36;76.53;100409.44;5046366;28;20665;-68
2022/11/13 05:54:14;;;;;;;17.10;13.97;;;;;;;13.39;76.73;100416.41;5043646;28;20053;-68
2022/11/13 05:56:41;;;;;;;16.43;14.97;;;;;;;13.37;77.02;100421.53;5038732;28;20045;-68
2022/11/13 05:59:08;;;;;;;14.27;11.20;;;;;;;13.33;77.06;100414.81;5046625;28;20621;-68
2022/11/13 06:01:37;;;;;;;15.77;13.93;;;;;;;13.39;77.21;100408.84;5043620;28;20052;-66
2022/11/13 06:04:06;;;;;;;13.38;11.88;;;;;;;13.30;77.10;100407.88;5040552;28;20080;-67
2022/11/13 06:06:33;;;;;;;15.10;13.57;;;;;;;13.36;77.21;100415.03;5039582;28;20045;-67
2022/11/13 06:09:03;;;;;;;20.23;13.97;;;;;;;13.34;77.03;100406.13;5040707;28;20049;-67
2022/11/13 06:11:31;;;;;;;14.23;12.88;;;;;;;13.29;77.14;100414.59;5040084;28;20056;-68
2022/11/13 06:13:58;;;;;;;14.13;11.87;;;;;;;13.27;77.22;100414.06;5050288;28;20046;-66
2022/11/13 06:16:33;;;;;;;14.33;11.30;;;;;;;13.24;77.20;100421.13;5063125;28;20495;-67
2022/11/13 06:19:02;;;;;;;19.67;13.50;;;;;;;13.19;77.15;100401.50;5060948;28;20037;-68
2022/11/13 06:21:31;;;;;;;10.77;9.67;;;;;;;13.27;77.32;100411.28;5046429;28;20428;-67
2022/11/13 06:23:59;;;;;;;19.27;14.17;;;;;;;13.28;77.25;100412.94;5042073;28;20045;-67
2022/11/13 06:26:31;;;;;;;13.97;12.57;;;;;;;13.19;77.29;100406.28;5041459;28;20056;-66
2022/11/13 06:29:01;;;;;;;18.90;15.03;;;;;;;13.27;77.26;100416.88;5046251;28;20045;-67
2022/11/13 06:31:30;;;;;;;15.77;12.52;;;;;;;13.18;77.34;100421.44;5047393;28;20053;-67
2022/11/13 06:33:58;;;;;;;11.98;10.85;;;;;;;13.05;77.53;100404.22;5034839;28;20076;-67
2022/11/13 06:36:43;;;;;;;12.83;11.73;;;;;;;12.93;77.79;100422.63;5043098;28;20075;-67
2022/11/13 06:39:11;;;;;;;11.53;10.57;;;;;;;12.91;78.00;100413.69;5037149;28;20412;-68
2022/11/13 06:41:38;;;;;;;13.03;11.27;;;;;;;12.92;78.12;100424.59;5037674;28;20041;-68
2022/11/13 06:44:05;;;;;;;11.17;10.17;;;;;;;12.93;78.16;100422.63;5062206;28;20491;-68
2022/11/13 06:46:32;;;;;;;16.60;14.90;;;;;;;12.91;78.56;100433.28;5054652;28;20539;-68
2022/11/13 06:48:59;;;;;;;14.50;13.00;;;;;;;12.85;78.55;100420.47;5039681;28;20056;-67
2022/11/13 06:51:28;;;;;;;14.33;11.67;;;;;;;12.88;78.53;100426.31;5042452;28;20397;-67
2022/11/13 06:53:56;;;;;;;12.43;9.63;;;;;;;12.83;78.93;100423.59;5030826;28;20495;-66
2022/11/13 06:56:24;;;;;;;13.27;12.00;;;;;;;12.85;79.01;100420.47;5041867;28;20053;-66
2022/11/13 06:58:52;;;;;;;10.60;9.80;;;;;;;12.85;79.03;100424.09;5048395;28;20049;-65
2022/11/13 07:01:21;;;;;;;18.97;12.03;;;;;;;12.86;78.95;100419.34;5047576;28;20072;-66
2022/11/13 07:03:48;;;;;;;10.67;9.77;;;;;;;12.82;78.99;100427.53;5048553;28;20095;-66
2022/11/13 07:06:18;;;;;;;10.07;9.17;;;;;;;12.78;79.08;100418.03;5032638;28;20045;-66
2022/11/13 07:08:45;;;;;;;13.57;11.23;;;;;;;12.77;79.36;100424.78;5040834;28;20046;-67
2022/11/13 07:11:15;;;;;;;14.03;12.73;;;;;;;12.74;79.44;100425.38;5037813;28;20049;-66
2022/11/13 07:13:42;;;;;;;12.23;11.05;;;;;;;12.72;79.55;100430.47;5047603;28;20060;-67
2022/11/13 07:16:10;;;;;;;17.17;12.10;;;;;;;12.77;79.44;100430.38;5047683;28;20048;-66
2022/11/13 07:18:48;;;;;;;17.67;13.83;;;;;;;12.70;79.13;100432.72;5034663;28;20081;-66
2022/11/13 07:21:15;;;;;;;10.30;9.53;;;;;;;12.67;79.58;100445.34;5039865;28;20057;-66
2022/11/13 07:23:42;;;;;;;16.30;12.00;;;;;;;12.45;79.69;100417.03;5041458;28;20068;-66
2022/11/13 07:26:09;;;;;;;14.10;12.93;;;;;;;12.38;80.00;100406.16;5044139;28;20045;-66
2022/11/13 07:28:37;;;;;;;11.73;10.63;;;;;;;12.60;80.04;100438.44;5041278;28;20045;-66
2022/11/13 07:31:05;;;;;;;16.73;13.10;;;;;;;12.63;79.93;100449.03;5034924;28;20057;-66
2022/11/13 07:33:32;;;;;;;12.17;11.00;;;;;;;12.43;79.83;100428.50;5038607;28;20060;-65
2022/11/13 07:35:59;;;;;;;15.07;10.77;;;;;;;12.60;79.93;100463.63;5039068;28;20055;-66
2022/11/13 07:38:26;;;;;;;12.93;11.73;;;;;;;12.63;79.81;100460.25;5034159;28;20500;-65
2022/11/13 07:40:53;;;;;;;12.60;11.33;;;;;;;12.66;79.79;100473.66;5042730;28;20041;-65
2022/11/13 07:43:20;;;;;;;13.73;12.43;;;;;;;12.67;79.71;100469.72;5032499;28;20064;-66
2022/11/13 07:45:53;;;;;;;15.10;13.60;;;;;;;12.61;79.71;100460.53;5037124;28;20051;-66
2022/11/13 07:48:23;;;;;;;15.00;13.23;;;;;;;12.58;79.88;100461.16;5041580;28;20056;-65
2022/11/13 07:50:50;;;;;;;11.20;10.20;;;;;;;12.60;80.05;100466.44;5048297;28;20044;-65
2022/11/13 07:53:19;;;;;;;11.10;10.20;;;;;;;12.68;79.89;100471.38;5046971;28;20041;-65
2022/11/13 07:55:46;;;;;;;12.33;11.30;;;;;;;12.70;79.87;100471.94;5034078;28;20504;-66
2022/11/13 07:58:13;;;;;;;22.47;14.60;;;;;;;12.67;79.88;100464.13;5033888;28;20053;-65
2022/11/13 08:00:40;;;;;;;15.47;13.53;;;;;;;12.67;79.78;100461.31;5031798;28;20049;-66
2022/11/13 08:03:10;;;;;;;13.80;12.60;;;;;;;12.75;79.78;100469.91;5039628;28;20049;-66
2022/11/13 08:05:38;;;;;;;12.17;11.13;;;;;;;12.85;79.73;100485.75;5031562;28;20060;-66
2022/11/13 08:08:06;;;;;;;11.93;10.73;;;;;;;13.05;79.53;100476.28;5033134;28;20384;-65
2022/11/13 08:10:34;;;;;;;13.10;11.90;;;;;;;13.09;79.01;100462.50;5041888;28;20045;-66
2022/11/13 08:13:04;;;;;;;11.37;10.47;;;;;;;13.10;78.67;100458.59;5054410;28;20492;-66
2022/11/13 08:15:31;;;;;;;16.60;14.80;;;;;;;13.25;78.36;100475.22;5039874;28;20049;-66
2022/11/13 08:18:00;;;;;;;11.70;10.87;;;;;;;13.38;78.42;100477.28;5046619;28;20044;-66
2022/11/13 08:20:29;;;;;;;12.68;11.68;;;;;;;13.54;78.01;100483.53;5035703;28;20041;-66
2022/11/13 08:23:00;;;;;;;12.90;11.67;;;;;;;13.62;77.33;100468.00;5035210;28;20522;-65
2022/11/13 08:25:29;;;;;;;13.70;12.47;;;;;;;13.96;76.75;100478.97;5052489;28;20059;-66
2022/11/13 08:27:56;;;;;;;16.97;12.73;;;;;;;14.06;75.87;100472.38;5035018;28;20221;-66
2022/11/13 08:30:25;;;;;;;11.80;11.00;;;;;;;14.27;75.06;100479.31;5036211;28;20053;-66
2022/11/13 08:32:52;;;;;;;15.75;14.63;;;;;;;14.50;74.60;100482.28;5030616;28;20052;-65
2022/11/13 08:35:19;;;;;;;12.07;11.27;;;;;;;14.74;73.76;100482.16;5041471;28;20510;-65
2022/11/13 08:37:52;;;;;;;12.60;11.43;;;;;;;14.99;72.87;100492.06;5039863;28;20053;-65
2022/11/13 08:40:19;;;;;;;12.20;11.07;;;;;;;15.20;72.34;100496.13;5040154;28;20041;-66
2022/11/13 08:42:46;;;;;;;14.75;13.32;;;;;;;15.38;71.71;100486.75;5045241;28;20419;-65
2022/11/13 08:45:13;;;;;;;15.25;13.85;;;;;;;15.84;71.09;100499.81;5040545;28;20073;-65
2022/11/13 08:47:39;;;;;;;16.17;14.43;;;;;;;16.30;70.56;100503.50;5044190;28;20057;-66
2022/11/13 08:50:09;;;;;;;13.32;11.95;;;;;;;16.58;69.04;100501.34;5045428;28;20074;-66
2022/11/13 08:52:36;;;;;;;12.43;11.40;;;;;;;16.72;68.21;100501.28;5037846;28;20068;-65
2022/11/13 08:55:03;;;;;;;12.55;11.55;;;;;;;16.70;67.39;100481.88;5038289;28;20056;-64
2022/11/13 08:57:30;;;;;;;13.60;12.60;;;;;;;16.96;66.45;100512.22;5037682;28;20056;-66
2022/11/13 08:59:57;;;;;;;14.70;13.38;;;;;;;17.43;66.83;100507.72;5037621;28;20052;-66
2022/11/13 09:02:24;;;;;;;15.40;13.38;;;;;;;17.76;64.82;100508.19;5042221;28;20060;-67
2022/11/13 09:04:50;;;;;;;11.55;10.73;;;;;;;17.72;64.08;100495.84;5041718;28;20413;-66
2022/11/13 09:07:17;;;;;;;12.13;11.02;;;;;;;17.89;64.35;100488.59;5033850;28;20447;-66
2022/11/13 09:09:52;;;;;;;13.30;12.07;;;;;;;18.27;62.99;100491.56;5050433;28;20145;-67
2022/11/13 09:12:20;;;;;;;12.55;11.20;;;;;;;18.19;61.68;100492.44;5042426;28;20095;-66
2022/11/13 09:14:47;;;;;;;14.35;12.95;;;;;;;18.43;61.73;100491.91;5045089;28;20110;-68
2022/11/13 09:17:14;;;;;;;13.57;12.25;;;;;;;18.77;60.50;100509.97;5043140;28;20049;-70
2022/11/13 09:19:41;;;;;;;19.48;13.18;;;;;;;19.02;60.17;100494.09;5042105;28;20463;-67
2022/11/13 09:22:10;;;;;;;10.32;9.57;;;;;;;19.15;59.57;100491.03;5040372;28;20052;-66
2022/11/13 09:24:37;;;;;;;14.85;13.30;;;;;;;19.35;58.41;100497.09;5033508;28;20054;-65
2022/11/13 09:27:03;;;;;;;15.07;13.93;;;;;;;19.31;57.90;100481.94;5034429;28;20053;-66
2022/11/13 09:29:30;;;;;;;12.52;11.63;;;;;;;19.59;57.88;100493.66;5044277;28;20511;-66
2022/11/13 09:31:57;;;;;;;14.43;13.02;;;;;;;19.92;56.99;100490.09;5042125;28;20042;-67
2022/11/13 09:34:25;;;;;;;11.68;10.60;;;;;;;19.88;56.50;100485.13;5042635;28;20057;-66
2022/11/13 09:36:52;;;;;;;10.43;9.73;;;;;;;19.97;56.30;100482.22;5044682;28;20045;-68
2022/11/13 09:39:19;;;;;;;13.32;11.82;;;;;;;20.36;55.79;100477.19;5035959;28;20068;-67
2022/11/13 09:41:55;;;;;;;15.75;14.65;;;;;;;20.62;55.00;100479.00;5032631;28;20661;-66
2022/11/13 09:44:28;;;;;;;11.98;10.93;;;;;;;20.70;53.67;100476.03;5036086;28;20496;-66
2022/11/13 09:47:21;;;;;;;13.65;12.45;;;;;;;20.84;54.64;100467.19;5036856;28;20056;-66
2022/11/13 09:49:57;;;;;;;11.48;10.50;;;;;;;21.45;52.56;100466.44;5035503;28;20045;-67
2022/11/13 09:52:31;;;;;;;11.48;10.70;;;;;;;21.56;52.54;100467.59;5045059;28;20057;-66
2022/11/13 09:54:58;;;;;;;26.70;12.80;;;;;;;21.54;52.15;100487.03;5038822;28;20408;-66
2022/11/13 09:57:38;;;;;;;11.25;10.25;;;;;;;21.57;52.22;100471.25;5034074;28;20510;-67
2022/11/13 10:00:19;;;;;;;13.85;12.90;;;;;;;21.74;51.70;100480.38;5041460;28;20049;-66
2022/11/13 10:02:49;;;;;;;12.43;11.48;;;;;;;22.28;51.29;100466.97;5041456;28;20053;-66
2022/11/13 10:05:21;;;;;;;;;;;;;;;22.24;49.94;100481.09;5043720;28;20436;-66
2022/11/13 10:07:54;;;;;;;12.15;10.88;;;;;;;22.16;50.27;100467.84;5040635;28;19932;-66
2022/11/13 10:10:35;;;;;;;15.18;14.05;;;;;;;21.92;50.38;100463.88;5041028;28;20045;-67
2022/11/13 10:13:04;;;;;;;12.52;11.57;;;;;;;22.26;50.73;100463.66;5040176;28;20045;-66
2022/11/13 10:15:31;;;;;;;10.02;9.23;;;;;;;22.39;49.86;100466.09;5032135;28;20150;-67
2022/11/13 10:18:10;;;;;;;13.15;11.77;;;;;;;22.66;49.35;100450.16;5039107;28;20052;-66
2022/11/13 10:20:49;;;;;;;12.65;11.48;;;;;;;23.11;49.14;100470.88;5047346;28;20057;-66
2022/11/13 10:23:20;;;;;;;13.33;10.90;;;;;;;23.64;48.76;100455.09;5042228;28;20042;-66
2022/11/13 10:25:47;;;;;;;13.20;12.13;;;;;;;24.43;47.51;100461.75;5042066;28;20045;-67
2022/11/13 10:28:17;;;;;;;11.52;10.50;;;;;;;24.73;46.51;100439.09;5035179;28;20041;-67
2022/11/13 10:31:04;;;;;;;12.75;11.60;;;;;;;24.85;46.11;100452.34;5033637;28;20459;-67
2022/11/13 10:33:31;;;;;;;10.48;9.57;;;;;;;24.87;45.32;100475.66;5034268;28;20052;-67
2022/11/13 10:36:26;;;;;;;12.68;11.68;;;;;;;24.79;45.21;100466.16;5038028;28;20373;-67
2022/11/13 10:39:01;;;;;;;12.77;11.77;;;;;;;24.94;45.06;100456.63;5041350;28;20056;-67
2022/11/13 10:41:27;;;;;;;13.10;11.85;;;;;;;25.32;44.91;100459.75;5033212;28;20515;-67
2022/11/13 10:43:58;;;;;;;12.82;11.57;;;;;;;25.47;43.97;100450.16;5035139;28;20052;-66
2022/11/13 10:46:28;;;;;;;15.90;14.43;;;;;;;25.62;43.57;100451.22;5034689;28;20149;-66
2022/11/13 10:48:57;;;;;;;15.95;14.30;;;;;;;25.70;43.39;100453.78;5050575;28;20500;-67
2022/11/13 10:51:25;;;;;;;13.52;12.63;;;;;;;25.90;43.08;100457.38;5049917;28;20049;-67
2022/11/13 10:53:53;;;;;;;13.57;12.75;;;;;;;25.69;42.88;100446.44;5034795;28;20115;-66
2022/11/13 10:56:35;;;;;;;11.57;10.65;;;;;;;25.52;42.74;100441.28;5034256;28;20423;-66
2022/11/13 10:59:16;;;;;;;16.05;14.85;;;;;;;25.34;42.75;100449.56;5032072;28;20051;-67
2022/11/13 11:01:45;;;;;;;13.85;12.95;;;;;;;25.25;43.20;100435.53;5040962;28;20045;-67
2022/11/13 11:04:28;;;;;;;11.68;10.77;;;;;;;25.41;43.14;100435.41;5033819;28;20074;-67
2022/11/13 11:07:10;;;;;;;11.30;10.32;;;;;;;25.65;42.62;100416.97;5037773;28;20045;-67
2022/11/13 11:09:47;;;;;;;12.60;11.63;;;;;;;25.85;42.02;100420.56;5033012;28;20050;-67
2022/11/13 11:12:22;;;;;;;11.53;10.57;;;;;;;25.89;41.93;100432.03;5038639;28;20063;-67
2022/11/13 11:14:56;;;;;;;9.90;9.10;;;;;;;26.20;41.54;100430.81;5045901;28;20128;-66
2022/11/13 11:17:38;;;;;;;11.52;10.55;;;;;;;26.68;41.54;100428.91;5033101;28;20412;-67
2022/11/13 11:20:32;;;;;;;12.85;11.30;;;;;;;27.05;40.18;100442.38;5039554;28;20045;-67